createdAt,value
2019-03-27T00:01:26.316Z,11.23
2019-03-27T00:04:03.240Z,11.17
2019-03-27T00:06:41.947Z,11.40
2019-03-27T00:09:21.652Z,12.67
2019-03-27T00:11:56.067Z,11.63
2019-03-27T00:14:32.434Z,11.03
2019-03-27T00:17:08.159Z,11.97
2019-03-27T00:19:42.963Z,10.83
2019-03-27T00:22:21.252Z,10.93
2019-03-27T00:24:56.590Z,11.10
2019-03-27T00:27:33.526Z,11.30
2019-03-27T00:30:08.208Z,12.50
2019-03-27T00:32:43.760Z,12.97
2019-03-27T00:35:18.243Z,12.37
2019-03-27T00:37:53.927Z,11.13
2019-03-27T00:40:31.165Z,12.57
2019-03-27T00:43:06.080Z,14.20
2019-03-27T00:45:40.246Z,12.77
2019-03-27T00:48:16.130Z,16.70
2019-03-27T00:50:51.283Z,11.90
2019-03-27T00:53:26.159Z,10.87
2019-03-27T00:56:00.828Z,11.27
2019-03-27T00:58:35.400Z,12.67
2019-03-27T01:01:20.442Z,13.67
2019-03-27T01:03:54.961Z,12.00
2019-03-27T01:06:31.010Z,12.03
2019-03-27T01:09:06.019Z,12.57
2019-03-27T01:11:40.752Z,12.40
2019-03-27T01:14:17.644Z,13.77
2019-03-27T01:16:52.070Z,14.00
2019-03-27T01:19:28.575Z,13.37
2019-03-27T01:22:03.365Z,13.13
2019-03-27T01:24:39.867Z,12.67
2019-03-27T01:27:14.466Z,12.80
2019-03-27T01:29:48.807Z,13.43
2019-03-27T01:32:26.483Z,13.87
2019-03-27T01:35:04.253Z,11.87
2019-03-27T01:37:39.714Z,13.07
2019-03-27T01:40:14.193Z,17.70
2019-03-27T01:42:48.460Z,12.23
2019-03-27T01:45:23.319Z,13.17
2019-03-27T01:47:57.591Z,12.10
2019-03-27T01:50:32.962Z,12.00
2019-03-27T01:53:07.778Z,11.77
2019-03-27T01:55:42.081Z,11.40
2019-03-27T01:58:16.314Z,12.87
2019-03-27T02:00:50.328Z,11.93
2019-03-27T02:03:25.120Z,11.83
2019-03-27T02:06:00.279Z,12.23
2019-03-27T02:08:40.433Z,12.17
2019-03-27T02:11:18.766Z,12.20
2019-03-27T02:13:53.523Z,12.53
2019-03-27T02:16:46.950Z,11.87
2019-03-27T02:19:21.527Z,11.67
2019-03-27T02:21:55.935Z,11.53
2019-03-27T02:24:32.583Z,12.03
2019-03-27T02:27:09.556Z,12.17
2019-03-27T02:29:45.230Z,11.73
2019-03-27T02:32:22.106Z,12.40
2019-03-27T02:34:57.516Z,12.07
2019-03-27T02:37:32.632Z,12.90
2019-03-27T02:40:07.895Z,12.53
2019-03-27T02:42:43.879Z,11.33
2019-03-27T02:45:18.482Z,13.00
2019-03-27T02:47:54.885Z,12.87
2019-03-27T02:50:29.462Z,14.90
2019-03-27T02:53:04.253Z,12.33
2019-03-27T02:55:40.375Z,13.13
2019-03-27T02:58:15.015Z,12.50
2019-03-27T03:00:52.322Z,11.77
2019-03-27T03:03:26.708Z,12.37
2019-03-27T03:06:01.148Z,12.30
2019-03-27T03:08:35.544Z,12.27
2019-03-27T03:11:11.243Z,11.60
2019-03-27T03:13:45.487Z,12.00
2019-03-27T03:16:20.954Z,11.90
2019-03-27T03:18:55.462Z,11.70
2019-03-27T03:21:30.445Z,11.30
2019-03-27T03:24:07.303Z,11.27
2019-03-27T03:26:44.494Z,12.63
2019-03-27T03:29:20.702Z,12.67
2019-03-27T03:31:56.034Z,10.90
2019-03-27T03:34:31.201Z,11.23
2019-03-27T03:37:06.893Z,11.40
2019-03-27T03:39:41.612Z,10.83
2019-03-27T03:42:16.414Z,10.67
2019-03-27T03:44:51.172Z,10.50
2019-03-27T03:47:27.689Z,11.00
2019-03-27T03:50:02.217Z,11.43
2019-03-27T03:52:36.877Z,12.10
2019-03-27T03:55:15.582Z,11.17
2019-03-27T03:57:53.922Z,11.43
2019-03-27T04:00:30.806Z,11.97
2019-03-27T04:03:07.877Z,13.40
2019-03-27T04:05:46.294Z,13.33
2019-03-27T04:08:22.935Z,15.53
2019-03-27T04:10:56.885Z,16.40
2019-03-27T04:13:33.034Z,13.93
2019-03-27T04:16:07.026Z,14.70
2019-03-27T04:18:42.572Z,13.93
2019-03-27T04:21:21.176Z,13.43
2019-03-27T04:23:55.299Z,13.17
2019-03-27T04:26:33.409Z,15.13
2019-03-27T04:29:07.225Z,14.97
2019-03-27T04:31:42.575Z,12.27
2019-03-27T04:34:20.370Z,13.93
2019-03-27T04:36:55.852Z,17.43
2019-03-27T04:39:32.540Z,14.07
2019-03-27T04:42:07.373Z,13.53
2019-03-27T04:44:41.995Z,13.00
2019-03-27T04:47:31.530Z,13.47
2019-03-27T04:49:53.772Z,14.60
2019-03-27T04:52:27.987Z,12.80
2019-03-27T04:55:02.277Z,12.50
2019-03-27T04:57:37.489Z,13.20
2019-03-27T05:00:13.048Z,14.10
2019-03-27T05:02:47.511Z,13.23
2019-03-27T05:05:23.566Z,13.27
2019-03-27T05:07:58.407Z,13.47
2019-03-27T05:10:33.039Z,15.10
2019-03-27T05:13:08.416Z,13.67
2019-03-27T05:15:44.146Z,13.50
2019-03-27T05:18:18.352Z,13.67
2019-03-27T05:20:54.107Z,13.27
2019-03-27T05:23:29.024Z,12.57
2019-03-27T05:26:04.841Z,13.07
2019-03-27T05:28:39.914Z,13.73
2019-03-27T05:31:15.667Z,13.73
2019-03-27T05:33:55.792Z,13.60
2019-03-27T05:36:31.868Z,14.53
2019-03-27T05:39:14.429Z,14.60
2019-03-27T05:41:47.565Z,15.10
2019-03-27T05:44:24.869Z,19.10
2019-03-27T05:46:59.783Z,16.60
2019-03-27T05:49:34.509Z,16.73
2019-03-27T05:52:09.884Z,15.83
2019-03-27T05:54:45.921Z,15.63
2019-03-27T05:57:23.658Z,16.50
2019-03-27T05:59:58.362Z,15.43
2019-03-27T06:02:34.452Z,17.07
2019-03-27T06:05:10.006Z,16.30
2019-03-27T06:07:44.806Z,15.63
2019-03-27T06:10:21.963Z,18.80
2019-03-27T06:12:57.447Z,15.03
2019-03-27T06:15:34.303Z,18.77
2019-03-27T06:18:13.415Z,18.57
2019-03-27T06:20:46.957Z,16.87
2019-03-27T06:23:21.432Z,18.40
2019-03-27T06:25:58.637Z,16.80
2019-03-27T06:28:34.418Z,17.70
2019-03-27T06:31:09.396Z,21.17
2019-03-27T06:33:45.847Z,18.90
2019-03-27T06:36:26.625Z,18.33
2019-03-27T06:39:06.905Z,19.60
2019-03-27T06:41:41.635Z,18.13
2019-03-27T06:44:17.523Z,15.70
2019-03-27T06:47:05.342Z,15.13
2019-03-27T06:49:40.523Z,12.90
2019-03-27T06:52:15.581Z,14.07
2019-03-27T06:54:51.114Z,13.07
2019-03-27T06:57:27.307Z,14.63
2019-03-27T07:00:02.349Z,13.53
2019-03-27T07:02:39.716Z,16.63
2019-03-27T07:05:22.153Z,13.40
2019-03-27T07:07:58.726Z,10.57
2019-03-27T07:10:35.004Z,10.70
2019-03-27T07:13:11.320Z,13.07
2019-03-27T07:15:45.788Z,9.40
2019-03-27T07:18:23.275Z,12.83
2019-03-27T07:21:03.878Z,12.30
2019-03-27T07:23:38.933Z,12.23
2019-03-27T07:26:12.172Z,10.90
2019-03-27T07:28:47.539Z,9.80
2019-03-27T07:31:22.738Z,9.83
2019-03-27T07:33:58.739Z,10.53
2019-03-27T07:36:35.903Z,10.77
2019-03-27T07:39:23.002Z,11.70
2019-03-27T07:42:00.637Z,9.60
2019-03-27T07:44:39.114Z,10.17
2019-03-27T07:47:15.885Z,9.87
2019-03-27T07:49:50.972Z,13.27
2019-03-27T07:52:28.512Z,10.93
2019-03-27T07:55:19.680Z,11.50
2019-03-27T07:57:52.383Z,12.77
2019-03-27T08:00:31.852Z,13.53
2019-03-27T08:03:08.389Z,10.73
2019-03-27T08:05:48.345Z,11.73
2019-03-27T08:08:31.774Z,11.73
2019-03-27T08:11:08.316Z,10.00
2019-03-27T08:13:46.788Z,11.33
2019-03-27T08:16:22.344Z,12.97
2019-03-27T08:19:07.460Z,12.07
2019-03-27T08:21:35.377Z,14.87
2019-03-27T08:24:11.996Z,11.57
2019-03-27T08:26:46.365Z,12.77
2019-03-27T08:29:19.642Z,12.60
2019-03-27T08:31:59.019Z,12.47
2019-03-27T08:34:35.859Z,12.00
2019-03-27T08:37:12.424Z,14.43
2019-03-27T08:39:48.367Z,15.83
2019-03-27T08:42:25.773Z,12.07
2019-03-27T08:45:08.328Z,11.77
2019-03-27T08:47:49.717Z,11.90
2019-03-27T08:50:26.648Z,11.53
2019-03-27T08:53:04.032Z,12.97
2019-03-27T08:55:52.823Z,11.63
2019-03-27T08:58:30.143Z,11.37
2019-03-27T09:01:10.761Z,12.37
2019-03-27T09:03:51.121Z,12.17
2019-03-27T09:06:34.125Z,11.27
2019-03-27T09:09:12.003Z,11.37
2019-03-27T09:11:49.575Z,11.07
2019-03-27T09:14:27.779Z,10.20
2019-03-27T09:17:03.113Z,11.00
2019-03-27T09:19:37.722Z,10.10
2019-03-27T09:22:14.444Z,10.57
2019-03-27T09:24:50.242Z,11.63
2019-03-27T09:27:28.147Z,8.67
2019-03-27T09:30:02.341Z,10.07
2019-03-27T09:32:36.295Z,9.83
2019-03-27T09:35:10.574Z,11.00
2019-03-27T09:37:47.561Z,9.67
2019-03-27T09:40:24.643Z,9.80
2019-03-27T09:43:00.891Z,11.53
2019-03-27T09:45:36.871Z,9.40
2019-03-27T09:48:13.362Z,9.03
2019-03-27T09:50:49.864Z,9.17
2019-03-27T09:53:24.783Z,11.83
2019-03-27T09:55:59.339Z,11.87
2019-03-27T09:58:36.210Z,10.30
2019-03-27T10:01:12.157Z,9.43
2019-03-27T10:03:47.459Z,9.13
2019-03-27T10:06:27.711Z,9.97
2019-03-27T10:09:04.869Z,9.00
2019-03-27T10:11:40.545Z,9.00
2019-03-27T10:14:15.924Z,9.00
2019-03-27T10:16:49.395Z,9.27
2019-03-27T10:19:25.441Z,10.10
2019-03-27T10:22:00.046Z,9.90
2019-03-27T10:24:44.997Z,8.83
2019-03-27T10:27:42.016Z,10.10
2019-03-27T10:30:25.510Z,9.33
2019-03-27T10:33:07.365Z,8.73
2019-03-27T10:35:50.888Z,10.70
2019-03-27T10:38:31.980Z,8.97
2019-03-27T10:41:07.569Z,8.97
2019-03-27T10:43:44.643Z,8.70
2019-03-27T10:46:21.224Z,8.23
2019-03-27T10:48:58.327Z,10.93
2019-03-27T10:51:38.319Z,10.03
2019-03-27T10:54:18.191Z,10.03
2019-03-27T10:56:53.610Z,10.27
2019-03-27T10:59:34.413Z,9.00
2019-03-27T11:02:12.511Z,8.57
2019-03-27T11:04:49.576Z,8.43
2019-03-27T11:07:26.697Z,9.80
2019-03-27T11:10:27.147Z,8.50
2019-03-27T11:13:03.654Z,8.60
2019-03-27T11:15:39.798Z,11.23
2019-03-27T11:18:14.446Z,9.17
2019-03-27T11:20:48.410Z,9.07
2019-03-27T11:23:23.771Z,9.97
2019-03-27T11:26:02.976Z,10.00
2019-03-27T11:28:40.696Z,8.03
2019-03-27T11:31:16.596Z,9.03
2019-03-27T11:33:56.692Z,10.10
2019-03-27T11:36:35.125Z,9.93
2019-03-27T11:39:14.983Z,9.43
2019-03-27T11:41:50.832Z,9.33
2019-03-27T11:44:25.390Z,9.30
2019-03-27T11:46:59.801Z,8.40
2019-03-27T11:49:35.362Z,10.37
2019-03-27T11:52:20.340Z,12.23
2019-03-27T11:54:57.486Z,8.60
2019-03-27T11:57:31.978Z,8.33
2019-03-27T12:00:09.905Z,7.47
2019-03-27T12:02:45.523Z,9.70
2019-03-27T12:05:20.857Z,7.90
2019-03-27T12:07:58.285Z,9.17
2019-03-27T12:10:33.292Z,9.50
2019-03-27T12:13:08.076Z,10.13
2019-03-27T12:15:44.755Z,8.40
2019-03-27T12:18:21.690Z,9.03
2019-03-27T12:21:08.934Z,10.93
2019-03-27T12:23:47.933Z,8.77
2019-03-27T12:26:24.297Z,10.40
2019-03-27T12:28:59.929Z,9.60
2019-03-27T12:31:38.931Z,9.13
2019-03-27T12:34:14.578Z,8.53
2019-03-27T12:36:52.938Z,10.10
2019-03-27T12:39:31.137Z,11.17
2019-03-27T12:42:07.804Z,10.07
2019-03-27T12:44:55.540Z,11.27
2019-03-27T12:47:35.730Z,9.83
2019-03-27T12:50:14.119Z,8.20
2019-03-27T12:52:53.695Z,9.27
2019-03-27T12:55:39.055Z,10.10
2019-03-27T12:58:13.476Z,11.23
2019-03-27T13:00:58.972Z,11.00
2019-03-27T13:03:44.543Z,9.63
2019-03-27T13:06:25.444Z,9.63
2019-03-27T13:09:05.991Z,10.43
2019-03-27T13:11:41.619Z,8.93
2019-03-27T13:14:16.174Z,10.87
2019-03-27T13:16:52.901Z,10.80
2019-03-27T13:19:31.771Z,8.37
2019-03-27T13:22:07.207Z,8.10
2019-03-27T13:24:55.444Z,8.47
2019-03-27T13:27:33.385Z,9.67
2019-03-27T13:30:08.941Z,9.77
2019-03-27T13:32:47.320Z,10.27
2019-03-27T13:35:23.097Z,8.90
2019-03-27T13:38:03.918Z,7.77
2019-03-27T13:40:41.342Z,8.00
2019-03-27T13:43:17.433Z,8.90
2019-03-27T13:45:54.183Z,11.50
2019-03-27T13:48:30.560Z,9.40
2019-03-27T13:51:05.709Z,9.80
2019-03-27T13:53:40.094Z,11.00
2019-03-27T13:56:17.533Z,10.07
2019-03-27T13:58:52.630Z,9.20
2019-03-27T14:01:28.185Z,12.43
2019-03-27T14:04:03.218Z,11.73
2019-03-27T14:06:40.231Z,11.77
2019-03-27T14:09:19.764Z,11.87
2019-03-27T14:11:55.582Z,12.10
2019-03-27T14:14:32.493Z,12.60
2019-03-27T14:17:10.887Z,13.40
2019-03-27T14:19:48.050Z,9.67
2019-03-27T14:22:26.374Z,10.30
2019-03-27T14:25:04.690Z,11.93
2019-03-27T14:27:40.188Z,10.10
2019-03-27T14:30:18.217Z,9.30
2019-03-27T14:32:53.864Z,9.23
2019-03-27T14:35:42.673Z,8.33
2019-03-27T14:38:42.215Z,9.87
2019-03-27T14:41:18.486Z,8.03
2019-03-27T14:43:55.311Z,9.00
2019-03-27T14:46:30.779Z,8.10
2019-03-27T14:49:15.997Z,7.47
2019-03-27T14:51:50.663Z,7.97
2019-03-27T14:54:27.877Z,6.60
2019-03-27T14:57:06.747Z,7.87
2019-03-27T14:59:44.629Z,6.43
2019-03-27T15:02:34.918Z,6.77
2019-03-27T15:05:21.052Z,6.90
2019-03-27T15:07:57.503Z,7.47
2019-03-27T15:10:32.558Z,10.03
2019-03-27T15:13:08.214Z,9.50
2019-03-27T15:15:45.226Z,10.73
2019-03-27T15:18:25.855Z,8.43
2019-03-27T15:21:01.446Z,8.93
2019-03-27T15:23:38.171Z,7.43
2019-03-27T15:26:17.245Z,7.97
2019-03-27T15:28:52.239Z,12.23
2019-03-27T15:31:29.621Z,8.80
2019-03-27T15:34:03.812Z,8.50
2019-03-27T15:36:40.219Z,8.73
2019-03-27T15:39:16.607Z,9.33
2019-03-27T15:41:53.425Z,11.03
2019-03-27T15:44:34.599Z,10.47
2019-03-27T15:47:17.727Z,11.80
2019-03-27T15:49:59.783Z,16.87
2019-03-27T15:52:36.715Z,12.00
2019-03-27T15:55:11.943Z,13.57
2019-03-27T15:57:49.455Z,14.50
2019-03-27T16:00:26.690Z,15.27
2019-03-27T16:03:03.829Z,15.50
2019-03-27T16:05:41.152Z,11.40
2019-03-27T16:08:16.461Z,11.50
2019-03-27T16:10:51.599Z,11.20
2019-03-27T16:13:43.018Z,11.70
2019-03-27T16:16:17.331Z,10.33
2019-03-27T16:18:53.523Z,10.40
2019-03-27T16:21:30.473Z,11.30
2019-03-27T16:24:23.102Z,13.03
2019-03-27T16:27:04.723Z,23.20
2019-03-27T16:29:39.333Z,14.73
2019-03-27T16:32:14.360Z,14.77
2019-03-27T16:34:55.784Z,15.50
2019-03-27T16:37:36.502Z,13.90
2019-03-27T16:40:14.946Z,14.77
2019-03-27T16:42:52.060Z,16.40
2019-03-27T16:45:26.785Z,17.03
2019-03-27T16:48:02.304Z,16.17
2019-03-27T16:50:37.720Z,19.20
2019-03-27T16:53:13.376Z,13.10
2019-03-27T16:55:48.568Z,13.70
2019-03-27T16:58:23.632Z,15.00
2019-03-27T17:00:58.357Z,16.53
2019-03-27T17:03:35.118Z,15.90
2019-03-27T17:06:13.609Z,15.07
2019-03-27T17:08:49.566Z,14.93
2019-03-27T17:11:31.285Z,15.97
2019-03-27T17:14:06.192Z,17.00
2019-03-27T17:16:42.411Z,14.70
2019-03-27T17:19:17.803Z,15.10
2019-03-27T17:21:57.425Z,14.53
2019-03-27T17:24:36.053Z,15.60
2019-03-27T17:27:13.765Z,13.57
2019-03-27T17:29:49.370Z,13.23
2019-03-27T17:32:25.073Z,13.10
2019-03-27T17:35:00.655Z,14.43
2019-03-27T17:37:38.413Z,12.83
2019-03-27T17:40:16.066Z,12.77
2019-03-27T17:42:53.099Z,14.27
2019-03-27T17:45:30.027Z,11.57
2019-03-27T17:48:06.563Z,14.53
2019-03-27T17:50:41.568Z,13.13
2019-03-27T17:53:30.715Z,11.90
2019-03-27T17:55:55.299Z,11.87
2019-03-27T17:58:31.808Z,13.07
2019-03-27T18:01:09.215Z,10.50
2019-03-27T18:03:44.146Z,11.23
2019-03-27T18:06:18.960Z,11.70
2019-03-27T18:08:53.604Z,10.43
2019-03-27T18:11:31.300Z,14.33
2019-03-27T18:14:06.080Z,11.33
2019-03-27T18:16:40.646Z,10.73
2019-03-27T18:19:15.903Z,12.40
2019-03-27T18:21:50.878Z,12.90
2019-03-27T18:24:27.442Z,20.87
2019-03-27T18:27:08.033Z,14.83
2019-03-27T18:29:48.647Z,12.10
2019-03-27T18:32:24.061Z,13.60
2019-03-27T18:34:59.781Z,12.40
2019-03-27T18:37:34.955Z,21.83
2019-03-27T18:40:11.254Z,15.50
2019-03-27T18:42:46.785Z,12.07
2019-03-27T18:45:23.515Z,13.40
2019-03-27T18:48:00.922Z,13.63
2019-03-27T18:50:36.907Z,13.20
2019-03-27T18:53:15.518Z,11.70
2019-03-27T18:55:54.234Z,13.73
2019-03-27T18:58:30.417Z,9.53
2019-03-27T19:01:08.851Z,11.53
2019-03-27T19:03:44.666Z,12.03
2019-03-27T19:06:19.826Z,11.97
2019-03-27T19:08:57.501Z,11.00
2019-03-27T19:11:34.892Z,12.10
2019-03-27T19:14:28.242Z,12.93
2019-03-27T19:17:07.039Z,11.70
2019-03-27T19:19:44.761Z,11.73
2019-03-27T19:22:21.624Z,13.87
2019-03-27T19:24:59.929Z,11.83
2019-03-27T19:27:36.779Z,14.87
2019-03-27T19:30:13.691Z,10.77
2019-03-27T19:32:50.926Z,12.67
2019-03-27T19:35:26.912Z,15.17
2019-03-27T19:38:03.286Z,13.67
2019-03-27T19:40:37.643Z,11.80
2019-03-27T19:43:13.280Z,11.57
2019-03-27T19:45:52.483Z,12.37
2019-03-27T19:48:28.111Z,13.10
2019-03-27T19:51:04.558Z,20.07
2019-03-27T19:53:41.285Z,14.30
2019-03-27T19:56:15.873Z,13.47
2019-03-27T19:58:52.714Z,14.80
2019-03-27T20:01:28.598Z,13.40
2019-03-27T20:04:04.295Z,16.27
2019-03-27T20:06:38.953Z,17.30
2019-03-27T20:09:14.057Z,15.90
2019-03-27T20:11:51.589Z,15.10
2019-03-27T20:14:27.843Z,20.77
2019-03-27T20:17:03.086Z,18.53
2019-03-27T20:19:39.909Z,15.03
2019-03-27T20:22:20.031Z,14.63
2019-03-27T20:24:56.866Z,15.37
2019-03-27T20:27:40.503Z,16.73
2019-03-27T20:30:18.692Z,15.80
2019-03-27T20:32:55.981Z,19.00
2019-03-27T20:35:32.142Z,15.37
2019-03-27T20:38:09.252Z,15.60
2019-03-27T20:40:45.103Z,13.93
2019-03-27T20:43:20.507Z,14.17
2019-03-27T20:45:57.917Z,15.27
2019-03-27T20:48:52.897Z,17.23
2019-03-27T20:51:30.493Z,13.40
2019-03-27T20:54:05.104Z,15.60
2019-03-27T20:56:42.163Z,14.90
2019-03-27T20:59:18.472Z,16.07
2019-03-27T21:01:54.500Z,14.50
2019-03-27T21:04:32.668Z,16.53
2019-03-27T21:07:07.685Z,15.43
2019-03-27T21:09:42.863Z,14.40
2019-03-27T21:12:17.453Z,16.27
2019-03-27T21:14:52.742Z,14.87
2019-03-27T21:17:30.604Z,15.53
2019-03-27T21:20:06.708Z,17.00
2019-03-27T21:22:48.283Z,15.93
2019-03-27T21:25:26.650Z,15.67
2019-03-27T21:28:01.878Z,15.70
2019-03-27T21:30:38.970Z,15.77
2019-03-27T21:33:14.273Z,16.93
2019-03-27T21:35:48.671Z,15.30
2019-03-27T21:38:27.815Z,18.50
2019-03-27T21:41:04.642Z,14.47
2019-03-27T21:43:45.385Z,15.97
2019-03-27T21:46:20.642Z,13.17
2019-03-27T21:48:56.277Z,14.90
2019-03-27T21:51:35.603Z,13.00
2019-03-27T21:54:10.328Z,15.10
2019-03-27T21:56:45.171Z,20.20
2019-03-27T21:59:19.626Z,16.30
2019-03-27T22:01:56.601Z,15.80
2019-03-27T22:04:32.255Z,16.03
2019-03-27T22:07:11.765Z,17.03
2019-03-27T22:09:48.304Z,15.70
2019-03-27T22:12:23.748Z,17.30
2019-03-27T22:15:06.259Z,15.57
2019-03-27T22:17:42.415Z,16.60
2019-03-27T22:20:17.428Z,15.47
2019-03-27T22:22:51.778Z,16.60
2019-03-27T22:25:35.842Z,18.10
2019-03-27T22:28:10.286Z,18.60
2019-03-27T22:30:45.476Z,16.47
2019-03-27T22:33:20.697Z,17.60
2019-03-27T22:35:58.171Z,16.77
2019-03-27T22:38:33.437Z,17.03
2019-03-27T22:41:08.735Z,18.70
2019-03-27T22:43:44.638Z,20.80
2019-03-27T22:46:21.907Z,17.60
2019-03-27T22:48:59.064Z,18.60
2019-03-27T22:51:34.410Z,18.37
2019-03-27T22:54:14.209Z,17.63
2019-03-27T22:56:48.829Z,17.57
2019-03-27T22:59:24.950Z,16.97
2019-03-27T23:02:01.303Z,16.83
2019-03-27T23:04:36.872Z,16.03
2019-03-27T23:07:11.510Z,16.47
2019-03-27T23:09:47.089Z,14.80
2019-03-27T23:12:22.684Z,16.37
2019-03-27T23:14:57.984Z,16.43
2019-03-27T23:17:32.628Z,16.70
2019-03-27T23:20:08.551Z,15.83
2019-03-27T23:22:44.882Z,16.30
2019-03-27T23:25:20.110Z,16.30
2019-03-27T23:27:55.914Z,14.73
2019-03-27T23:30:32.881Z,16.53
2019-03-27T23:33:08.325Z,16.70
2019-03-27T23:35:45.867Z,16.87
2019-03-27T23:38:24.317Z,16.50
2019-03-27T23:40:59.604Z,14.17
2019-03-27T23:43:36.184Z,14.37
2019-03-27T23:46:10.953Z,14.47
2019-03-27T23:48:47.137Z,15.80
2019-03-27T23:51:24.163Z,13.83
2019-03-27T23:53:59.949Z,13.40
2019-03-27T23:56:40.016Z,14.10
2019-03-27T23:59:16.727Z,15.00
